• pl
  • eng

Awiacja
WIADOMOŚCI
ostatnia aktualizacja: 11.01.2019 18:40
Szanowni Państwo,

uprzejmie informujemy, że z dniem 01.01.2019 roku z obszaru MOLC zostanie wyłączone BPM we Wrocławiu. Jego zadania zostaną przejęte przez BPM w Krakowie.

Komunikaty METAR z lotnisk wojskowych. 05:01 20.02.2019

METAR EPCE 200400Z 27015KT 9999 BKN013 04/02
Q1010 RMK 039 088 7/7=

METAR EPDA 200400Z 25013G24KT 210V300 9999 BKN043 05/03
Q1011 RMK 045 089 5/5=

METAR EPDE 200400Z 26010KT 9999 SCT027 BKN100 05/02 Q1014 RMK 046 084
6/3=

METAR EPIR 200400Z 24014KT 9999 BKN045 05/01 Q1014 RMK 053 074 7/7=

METAR EPKS 200400Z 25011KT 9999 SCT022 OVC050 05/03 Q1016 RMK 054
083 8/4=

METAR EPLK 200400Z AUTO 27008KT 9999 BKN018/// OVC024/// 04/03 Q1015
RMK 043 089 8/7=

METAR EPLY 200400Z 27012KT 9999 SCT018 BKN040 05/02 Q1015 RMK 054 083
7/3=

METAR EPMB 200400Z 26013KT 9999 -SHRA BKN020TCU 05/02 Q1010 RMK 045
086 7/7=

METAR EPMI 200400Z 27011KT 9999 BKN011 04/02 Q1014 RMK 044
085 7/7=

METAR EPMM 200400Z 28012KT 9999 BKN040 05/03 Q1012 RMK 047 086 7/7=

METAR EPNA 200400Z NIL=

METAR EPOK 200400Z 27014KT 240V300 9999 FEW019 OVC037 05/01
Q1008 RMK 051 077 8/2=

METAR EPPR 200400Z 26006KT 9999 -RA BKN025 05/02 Q1010 RMK 047 081
7/7=

METAR EPPW 200400Z 26012KT 9999 BKN040 04/02 Q1015 RMK 039 088 5/5=

METAR EPRA 200400Z 28014KT 9999 SCT027 BKN047 04/02 Q1015 RMK 043 083
7/4=

METAR EPSN 200400Z 27015KT 9999 BKN016 BKN020 04/03 Q1013 RMK 044
089 7/5=

METAR EPTM 200400Z 23008KT 9999 SCT017 BKN040 04/02 Q1015 RMK 042 084
7/4=
 METAR EPLY
Lokalizacja:EPLY Łęczyca
Czas:04:00 UTC
Średni kierunek wiatru:270 °
Średnia prędkość wiatru:12 węzłów
Widzialność:10 km i więcej
Pierwsza warstwa chmur:3/8 do 4/8, wysokość podstawy 1800 FT
Druga warstwa chmur:5/8 do 7/8, wysokość podstawy 4000 FT
Temperatura powietrza:5 °C
Temperatura punktu rosy:2 °C
Ciśnienie QNH:1015 hPa
Dokładna temperatura powietrza:5,4 °C
Dokładna wilgotność względna:83 %
Zachmurzenie przez wszystkie piętra chmur:7/8
Zachmurzenie przez chmury niskie:3/8
Awiacja.imgw.pl jest pogodowym serwisem informacyjnym
Instytutu Meteorologii i Gospodarki Wodnej Państwowego Instytutu Badawczego.
Copyright IMGW PIB 2009-2011© Wszelkie prawa zastrzeżone.